aviador You're here:

KBKW Decoded Metar

BECKLEY in WV, USA
Report Time2018-01-22 01:51:00
UTC Time2018-01-22 02:07:33
Flight Rules vfr VFR
Wind210° at 03 kt
W.Decomp.*RWY 19: 2.7 kt HW 1.3 kt RCW
RWY 28: 1.3 kt HW 2.7 kt LCW
W.Rank210° ranks 17
Current wind is below 210° avg. (6.2)
Visibility9999 m
Phenomena:N/A
Clouds:Overcast 070 Hf
Expected CloudBase > 2,000 ft AGL from Temp-Dew spread
Ceiling7,000 ft
Temp10°C (ISA -0)
Dew Point05°C (71% RH)
AAT7.8°C
QNH1021 hPa
Density Alt2,362 ft
Elevation2,507 ft
Report Wrong Elevation
Raw Report
METAR KBKW 220151Z AUTO 21003KT 10SM OVC070 10/05 A3015 RMK AO2 SLP215
T01000050 TSNO=

Extra information for KBKW:More info

Metar Taf Metar & Taf Last 4 Metars F.Rules Stats Wind Profile Meteogram Temp Stats Airport Information Weather charts Add Link Nearby VenuesMetar ALERT Operation Metar Decoded Social comments

AIRNAV info for KBKW